Time;durP1;ratioP1;P1;durP2;ratioP2;P2;SDS_P1;SDS_P2;PMS_P1;PMS_P2;Temp;Humidity;BMP_temperature;BMP_pressure;BME280_temperature;BME280_humidity;BME280_pressure;Samples;Min_cycle;Max_cycle;Signal;HPM_P1;HPM_P2
2024/03/18 00:02:27;;;;;;;6.03;1.20;;;;;;;-145.69;69.87;52361.22;5114192;28;20212;-80
2024/03/18 00:04:56;;;;;;;4.47;1.30;;;;;;;-145.69;69.88;52339.44;5128624;27;20220;-81
2024/03/18 00:07:23;;;;;;;5.57;1.50;;;;;;;-145.69;69.71;52349.31;5129823;27;20197;-80
2024/03/18 00:09:50;;;;;;;5.57;1.40;;;;;;;-145.69;69.75;52351.31;5113832;28;20201;-81
2024/03/18 00:12:16;;;;;;;2.40;1.37;;;;;;;-145.69;69.73;52341.41;5113797;28;20284;-81
2024/03/18 00:14:43;;;;;;;2.17;1.30;;;;;;;-145.69;69.33;52343.38;5113751;28;20198;-81
2024/03/18 00:17:10;;;;;;;4.70;1.70;;;;;;;-145.69;69.15;52381.00;5113634;28;20544;-81
2024/03/18 00:19:36;;;;;;;2.80;1.50;;;;;;;-145.69;69.44;52347.34;5113646;28;20202;-81
2024/03/18 00:22:05;;;;;;;2.87;1.30;;;;;;;-145.69;68.78;52331.50;5113697;28;20201;-81
2024/03/18 00:24:32;;;;;;;6.43;1.87;;;;;;;-145.69;69.42;52351.31;5126619;27;20710;-80
2024/03/18 00:26:59;;;;;;;5.97;1.90;;;;;;;-145.69;69.42;52343.38;5133669;27;20196;-80
2024/03/18 00:29:25;;;;;;;4.17;1.93;;;;;;;-145.69;69.62;52357.25;5133867;27;20200;-80
2024/03/18 00:31:52;;;;;;;5.77;1.57;;;;;;;-145.69;69.69;52357.25;5119458;27;20200;-80
2024/03/18 00:34:18;;;;;;;2.77;1.43;;;;;;;-145.69;69.63;52361.22;5110173;27;20200;-80
2024/03/18 00:36:46;;;;;;;2.87;1.67;;;;;;;-145.69;69.11;52381.00;5093181;28;20198;-80
2024/03/18 00:39:14;;;;;;;7.97;1.37;;;;;;;-145.69;69.31;52361.22;5093038;28;20208;-80
2024/03/18 00:41:45;;;;;;;5.80;1.67;;;;;;;-145.69;68.84;52333.47;5105571;28;20197;-80
2024/03/18 00:44:14;;;;;;;3.30;1.30;;;;;;;-145.69;68.84;52349.31;5112034;28;20208;-81
2024/03/18 00:46:41;;;;;;;4.75;1.58;;;;;;;-145.69;68.79;52337.44;5094400;28;20213;-82
2024/03/18 00:49:07;;;;;;;3.10;1.40;;;;;;;-145.69;69.32;52373.09;5092970;28;20209;-81
2024/03/18 00:51:34;;;;;;;2.97;1.40;;;;;;;-145.69;68.94;52369.13;5092651;28;20240;-81
2024/03/18 00:54:00;;;;;;;4.50;1.20;;;;;;;-145.69;68.97;52361.22;5097658;28;20186;-80
2024/03/18 00:56:28;;;;;;;4.50;1.77;;;;;;;-145.69;69.14;52355.28;5113262;28;20216;-80
2024/03/18 00:58:55;;;;;;;4.77;1.30;;;;;;;-145.69;69.07;52333.47;5113110;28;20209;-81
2024/03/18 01:01:22;;;;;;;3.93;1.47;;;;;;;-145.69;69.02;52355.28;5112970;28;20681;-81
2024/03/18 01:03:48;;;;;;;6.27;1.47;;;;;;;-145.69;69.17;52363.19;5115674;27;20245;-81
2024/03/18 01:06:15;;;;;;;4.13;1.70;;;;;;;-145.69;68.56;52355.28;5112149;28;20744;-81
2024/03/18 01:08:42;;;;;;;5.37;1.07;;;;;;;-145.69;69.12;52371.13;5092419;28;20664;-81
2024/03/18 01:11:08;;;;;;;1.00;0.90;;;;;;;-145.69;68.56;52353.28;5092014;28;20603;-81
2024/03/18 01:13:36;;;;;;;1.40;1.00;;;;;;;-145.69;68.77;52337.44;5105940;28;20234;-80
2024/03/18 01:16:03;;;;;;;2.50;1.10;;;;;;;-145.69;68.98;52357.25;5112716;28;20567;-81
2024/03/18 01:18:30;;;;;;;6.13;1.30;;;;;;;-145.69;68.86;52369.13;5112818;28;20712;-81
2024/03/18 01:20:57;;;;;;;1.60;1.23;;;;;;;-145.69;69.14;52349.31;5112647;28;20203;-81
2024/03/18 01:23:23;;;;;;;8.47;1.23;;;;;;;-145.69;68.60;52345.38;5112571;28;20201;-81
2024/03/18 01:25:50;;;;;;;4.17;1.30;;;;;;;-145.69;68.53;52365.16;5112574;28;20221;-81
2024/03/18 01:28:16;;;;;;;3.17;1.30;;;;;;;-145.69;68.84;52367.16;5112548;28;20193;-81
2024/03/18 01:30:44;;;;;;;4.60;1.27;;;;;;;-145.69;69.14;52333.47;5112666;28;20213;-81
2024/03/18 01:33:11;;;;;;;10.10;1.33;;;;;;;-145.69;69.26;52398.84;5112673;28;20201;-81
2024/03/18 01:35:37;;;;;;;5.70;1.00;;;;;;;-145.69;69.15;52349.31;5131944;28;20189;-80
2024/03/18 01:38:04;;;;;;;6.67;1.30;;;;;;;-145.69;69.17;52371.13;5133220;28;20204;-80
2024/03/18 01:40:30;;;;;;;5.47;1.30;;;;;;;-145.69;69.61;52353.28;5133130;28;20228;-80
2024/03/18 01:42:57;;;;;;;4.07;0.80;;;;;;;-145.69;69.00;52392.91;5133074;28;20211;-80
2024/03/18 01:45:25;;;;;;;3.53;1.13;;;;;;;-145.69;69.21;52341.41;5133268;28;20235;-81
2024/03/18 01:47:53;;;;;;;4.97;1.20;;;;;;;-145.69;69.10;52361.22;5113770;28;20687;-80
2024/03/18 01:50:19;;;;;;;1.97;1.10;;;;;;;-145.69;69.69;52377.06;5112540;28;20244;-80
2024/03/18 01:52:46;;;;;;;3.07;0.93;;;;;;;-145.69;69.09;52333.47;5112183;28;20193;-80
2024/03/18 01:55:14;;;;;;;4.50;1.10;;;;;;;-145.69;69.22;52367.16;5112130;28;20205;-80
2024/03/18 01:57:41;;;;;;;2.97;1.10;;;;;;;-145.69;68.82;52369.13;5111913;28;20200;-80
2024/03/18 02:00:15;;;;;;;2.67;1.10;;;;;;;-145.69;68.99;52367.16;5112469;28;20198;-80
2024/03/18 02:02:41;;;;;;;6.07;1.10;;;;;;;-145.69;68.94;52349.31;5112402;28;20581;-79
2024/03/18 02:05:10;;;;;;;1.63;1.10;;;;;;;-145.69;69.70;52373.09;5126799;28;20220;-81
2024/03/18 02:07:37;;;;;;;2.00;1.00;;;;;;;-145.69;69.39;52359.22;5133066;28;20263;-80
2024/03/18 02:10:05;;;;;;;4.83;1.17;;;;;;;-145.69;69.11;52365.16;5132838;28;20227;-80
2024/03/18 02:12:32;;;;;;;3.30;1.10;;;;;;;-145.69;69.28;52388.94;5133283;28;20209;-80
2024/03/18 02:14:59;;;;;;;4.23;1.63;;;;;;;-145.69;68.99;52335.47;5119258;27;20193;-80
2024/03/18 02:17:26;;;;;;;5.40;1.10;;;;;;;-145.69;69.06;52353.28;5112164;28;20198;-80
2024/03/18 02:19:52;;;;;;;1.83;1.23;;;;;;;-145.69;69.14;52394.88;5112353;28;20651;-80
2024/03/18 02:22:20;;;;;;;6.47;1.50;;;;;;;-145.69;69.19;52375.06;5112323;28;20204;-81
2024/03/18 02:24:46;;;;;;;4.20;1.73;;;;;;;-145.69;69.12;52365.16;5115581;28;20201;-81
2024/03/18 02:27:14;;;;;;;2.67;1.00;;;;;;;-145.69;69.30;52357.25;5115903;28;20205;-81
2024/03/18 02:29:41;;;;;;;2.73;1.10;;;;;;;-145.69;68.98;52369.13;5115880;28;20197;-81
2024/03/18 02:32:08;;;;;;;2.73;0.93;;;;;;;-145.69;69.14;52345.38;5115671;28;20212;-81
2024/03/18 02:34:35;;;;;;;5.03;1.10;;;;;;;-145.69;69.41;52355.28;5125084;27;20194;-80
2024/03/18 02:37:02;;;;;;;1.60;1.30;;;;;;;-145.69;69.24;52345.38;5136168;27;20196;-80
2024/03/18 02:39:30;;;;;;;4.07;1.03;;;;;;;-145.69;69.18;52355.28;5122645;27;20197;-80
2024/03/18 02:41:56;;;;;;;4.47;1.30;;;;;;;-145.69;68.92;52369.13;5115399;28;20197;-81
2024/03/18 02:44:23;;;;;;;1.53;0.80;;;;;;;-145.69;69.14;52408.75;5115502;28;20232;-79
2024/03/18 02:46:50;;;;;;;4.43;1.00;;;;;;;-145.69;69.19;52369.13;5115483;28;20225;-79
2024/03/18 02:49:16;;;;;;;3.87;1.27;;;;;;;-145.69;68.77;52369.13;5113788;28;20559;-79
2024/03/18 02:51:43;;;;;;;1.97;1.23;;;;;;;-145.69;69.27;52355.28;5094605;28;20249;-80
2024/03/18 02:54:10;;;;;;;4.27;0.90;;;;;;;-145.69;69.09;52351.31;5094881;28;20201;-79
2024/03/18 02:56:38;;;;;;;3.17;1.00;;;;;;;-145.69;69.15;52392.91;5095002;28;20202;-80
2024/03/18 02:59:04;;;;;;;3.93;1.23;;;;;;;-145.69;69.10;52367.16;5104191;28;20193;-80
2024/03/18 03:01:30;;;;;;;3.90;0.90;;;;;;;-145.69;68.93;52377.06;5114819;28;20534;-80
2024/03/18 03:03:57;;;;;;;1.30;1.00;;;;;;;-145.69;68.94;52363.19;5118710;27;20193;-80
2024/03/18 03:06:24;;;;;;;1.20;0.90;;;;;;;-145.69;69.26;52363.19;5135508;27;20601;-80
2024/03/18 03:08:50;;;;;;;3.53;1.03;;;;;;;-145.69;68.66;52388.94;5135304;27;20193;-80
2024/03/18 03:11:17;;;;;;;6.00;1.13;;;;;;;-145.69;68.79;52369.13;5135334;27;20550;-80
2024/03/18 03:13:47;;;;;;;2.53;1.10;;;;;;;-145.69;68.72;52347.34;5135616;27;20205;-80
2024/03/18 03:16:14;;;;;;;5.27;1.20;;;;;;;-145.69;68.35;52365.16;5135665;27;20254;-80
2024/03/18 03:18:40;;;;;;;4.20;1.40;;;;;;;-145.69;68.77;52375.06;5135018;27;20208;-80
2024/03/18 03:21:09;;;;;;;3.97;1.60;;;;;;;-145.69;68.60;52369.13;5119597;27;20202;-81
2024/03/18 03:23:37;;;;;;;3.57;1.20;;;;;;;-145.69;68.97;52373.09;5115047;28;20197;-80
2024/03/18 03:26:03;;;;;;;2.27;1.40;;;;;;;-145.69;68.72;52357.25;5114448;28;20233;-80
2024/03/18 03:28:30;;;;;;;4.07;1.13;;;;;;;-145.69;68.99;52357.25;5114356;28;20201;-80
2024/03/18 03:31:03;;;;;;;3.17;2.30;;;;;;;-145.69;68.85;52361.22;5114728;28;20678;-80
2024/03/18 03:33:29;;;;;;;3.97;1.10;;;;;;;-145.69;68.84;52369.13;5114097;28;20210;-80
2024/03/18 03:35:56;;;;;;;2.83;1.67;;;;;;;-145.69;69.04;52341.41;5135024;27;20200;-80
2024/03/18 03:38:23;;;;;;;4.70;1.03;;;;;;;-145.69;68.62;52351.31;5135223;27;20196;-80
2024/03/18 03:40:53;;;;;;;3.27;1.27;;;;;;;-145.69;68.12;52375.06;5135049;27;20673;-80
2024/03/18 03:43:19;;;;;;;6.67;1.30;;;;;;;-145.69;68.03;52361.22;5128839;27;20198;-81
2024/03/18 03:45:55;;;;;;;1.77;1.00;;;;;;;-145.69;68.20;52357.25;5113828;28;20225;-80
2024/03/18 03:48:24;;;;;;;3.13;1.53;;;;;;;-145.69;68.59;52323.59;5113937;28;20221;-80
2024/03/18 03:50:51;;;;;;;5.77;1.20;;;;;;;-145.69;68.21;52363.19;5113770;28;20225;-82
2024/03/18 03:53:17;;;;;;;4.13;1.20;;;;;;;-145.69;68.49;52365.16;5113862;28;20202;-80
2024/03/18 03:55:44;;;;;;;3.43;1.13;;;;;;;-145.69;68.02;52345.38;5114253;28;20250;-80
2024/03/18 03:58:11;;;;;;;6.23;1.23;;;;;;;-145.69;68.19;52353.28;5114092;28;20240;-80
2024/03/18 04:00:37;;;;;;;3.43;1.10;;;;;;;-145.69;68.68;52353.28;5114026;28;20663;-79
2024/03/18 04:03:04;;;;;;;2.23;1.10;;;;;;;-145.69;68.59;52365.16;5114043;28;20198;-80
2024/03/18 04:05:32;;;;;;;2.97;1.20;;;;;;;-145.69;68.05;52361.22;5113644;28;20213;-80
2024/03/18 04:07:59;;;;;;;2.83;0.90;;;;;;;-145.69;68.45;52353.28;5113779;28;20213;-80
2024/03/18 04:10:25;;;;;;;4.97;1.07;;;;;;;-145.69;68.20;52361.22;5114089;28;20201;-80
2024/03/18 04:12:51;;;;;;;3.43;1.13;;;;;;;-145.69;68.59;52373.09;5113691;28;20201;-80
2024/03/18 04:15:18;;;;;;;3.37;1.17;;;;;;;-145.69;68.12;52361.22;5114017;28;20202;-80
2024/03/18 04:17:44;;;;;;;1.97;1.03;;;;;;;-145.69;67.93;52371.13;5113872;28;20205;-81
2024/03/18 04:20:19;;;;;;;1.57;0.97;;;;;;;-145.69;67.82;52392.91;5113734;28;20197;-79
2024/03/18 04:22:48;;;;;;;3.77;1.20;;;;;;;-145.69;68.36;52349.31;5113587;28;20226;-79
2024/03/18 04:25:16;;;;;;;3.87;1.50;;;;;;;-145.69;68.54;52371.13;5112907;28;20201;-82
2024/03/18 04:27:42;;;;;;;3.93;1.43;;;;;;;-145.69;68.66;52377.06;5113820;28;20199;-80
2024/03/18 04:30:14;;;;;;;8.03;1.73;;;;;;;-145.69;68.70;52379.03;5113044;28;20197;-80
2024/03/18 04:32:41;;;;;;;1.70;1.30;;;;;;;-145.69;68.79;52384.97;5113601;28;20342;-81
2024/03/18 04:35:08;;;;;;;3.40;1.50;;;;;;;-145.69;68.83;52351.31;5113611;28;20834;-80
2024/03/18 04:37:39;;;;;;;4.07;1.53;;;;;;;-145.69;69.32;52355.28;5113235;28;20193;-82
2024/03/18 04:40:11;;;;;;;9.20;1.77;;;;;;;-145.69;69.02;52345.38;5113202;28;20208;-81
2024/03/18 04:42:38;;;;;;;6.63;1.67;;;;;;;-145.69;69.77;52394.88;5113105;28;20717;-80
2024/03/18 04:45:05;;;;;;;3.77;1.63;;;;;;;-145.69;69.61;52331.50;5112938;28;20326;-80
2024/03/18 04:47:32;;;;;;;7.33;2.00;;;;;;;-145.69;69.77;52353.28;5108349;28;20253;-80
2024/03/18 04:50:03;;;;;;;4.13;1.47;;;;;;;-145.69;69.34;52373.09;5092755;28;20201;-81
2024/03/18 04:52:29;;;;;;;3.97;2.20;;;;;;;-145.69;70.13;52381.00;5092818;28;20208;-80
2024/03/18 04:54:56;;;;;;;8.53;2.20;;;;;;;-145.69;70.45;52373.09;5111776;27;20826;-81
2024/03/18 04:57:23;;;;;;;10.20;1.77;;;;;;;-145.69;70.01;52349.31;5126707;27;20185;-82
2024/03/18 04:59:50;;;;;;;5.70;1.90;;;;;;;-145.69;70.57;52365.16;5112466;28;20551;-81
2024/03/18 05:02:16;;;;;;;4.23;1.53;;;;;;;-145.69;69.94;52349.31;5112817;28;20648;-81
2024/03/18 05:04:43;;;;;;;4.17;1.90;;;;;;;-145.69;69.83;52404.78;5112877;28;20202;-81
2024/03/18 05:07:09;;;;;;;5.43;1.50;;;;;;;-145.69;70.24;52384.97;5112432;28;20232;-80
2024/03/18 05:09:35;;;;;;;6.73;2.00;;;;;;;-145.69;70.25;52347.34;5113024;28;20208;-80
2024/03/18 05:12:02;;;;;;;5.17;1.40;;;;;;;-145.69;70.23;52379.03;5113106;28;20205;-80
2024/03/18 05:14:30;;;;;;;2.57;1.37;;;;;;;-145.69;70.36;52353.28;5112642;28;20200;-80
2024/03/18 05:16:56;;;;;;;2.90;1.47;;;;;;;-145.69;70.19;52333.47;5112476;28;20196;-80
2024/03/18 05:19:23;;;;;;;2.50;1.60;;;;;;;-145.69;70.09;52369.13;5112907;28;20216;-80
2024/03/18 05:21:50;;;;;;;2.50;1.40;;;;;;;-145.69;69.97;52377.06;5112878;28;20236;-80
2024/03/18 05:24:16;;;;;;;2.83;1.50;;;;;;;-145.69;70.71;52381.00;5112667;28;20606;-80
2024/03/18 05:26:43;;;;;;;2.03;1.20;;;;;;;-145.69;70.26;52359.22;5112652;28;20262;-80
2024/03/18 05:29:10;;;;;;;4.30;1.43;;;;;;;-145.69;70.01;52381.00;5112493;28;20254;-79
2024/03/18 05:31:37;;;;;;;6.03;1.43;;;;;;;-145.69;70.02;52381.00;5112545;28;20224;-79
2024/03/18 05:34:05;;;;;;;5.03;1.60;;;;;;;-145.69;70.28;52359.22;5112454;28;20205;-79
2024/03/18 05:36:32;;;;;;;4.60;1.77;;;;;;;-145.69;70.07;52361.22;5112669;28;20225;-79
2024/03/18 05:38:59;;;;;;;4.07;1.50;;;;;;;-145.69;70.08;52337.44;5112459;28;20208;-80
2024/03/18 05:41:25;;;;;;;8.20;1.73;;;;;;;-145.69;70.23;52365.16;5112322;28;20229;-79
2024/03/18 05:43:52;;;;;;;4.30;1.33;;;;;;;-145.69;70.33;52384.97;5112490;28;20197;-80
2024/03/18 05:46:19;;;;;;;7.50;1.47;;;;;;;-145.69;70.62;52333.47;5112489;28;20232;-80
2024/03/18 05:48:47;;;;;;;4.67;1.23;;;;;;;-145.69;70.29;52369.13;5112572;28;20205;-80
2024/03/18 05:51:13;;;;;;;3.93;1.63;;;;;;;-145.69;70.10;52345.38;5111968;28;20233;-79
2024/03/18 05:53:41;;;;;;;3.30;1.60;;;;;;;-145.69;70.11;52339.44;5112550;28;20667;-79
2024/03/18 05:56:07;;;;;;;6.27;1.70;;;;;;;-145.69;70.59;52345.38;5112351;28;20197;-79
2024/03/18 05:58:39;;;;;;;7.90;1.63;;;;;;;-145.69;70.38;52349.31;5116170;28;20209;-79
2024/03/18 06:01:06;;;;;;;6.13;2.00;;;;;;;-145.69;70.98;52363.19;5116249;28;20301;-80
2024/03/18 06:03:33;;;;;;;7.17;1.83;;;;;;;-145.69;70.73;52377.06;5115843;28;20239;-80
2024/03/18 06:06:00;;;;;;;4.07;1.53;;;;;;;-145.69;70.98;52357.25;5116172;28;20217;-79
2024/03/18 06:08:27;;;;;;;5.60;1.60;;;;;;;-145.69;70.65;52384.97;5116143;28;20203;-80
2024/03/18 06:10:54;;;;;;;4.47;1.40;;;;;;;-145.69;71.02;52373.09;5115781;28;20212;-80
2024/03/18 06:13:20;;;;;;;4.40;1.87;;;;;;;-145.69;70.92;52341.41;5115901;28;20198;-80
2024/03/18 06:15:47;;;;;;;4.97;1.67;;;;;;;-145.69;70.61;52351.31;5116134;28;20652;-79
2024/03/18 06:18:13;;;;;;;7.07;1.97;;;;;;;-145.69;70.13;52353.28;5115764;28;20668;-80
2024/03/18 06:20:42;;;;;;;6.83;1.50;;;;;;;-145.69;70.33;52361.22;5116112;28;20201;-80
2024/03/18 06:23:10;;;;;;;7.43;2.00;;;;;;;-145.69;70.51;52345.38;5116033;28;20193;-80
2024/03/18 06:28:21;;;;;;;6.97;2.00;;;;;;;-145.69;70.81;52359.22;5115975;28;20201;-80
2024/03/18 06:30:49;;;;;;;4.67;1.60;;;;;;;-145.69;70.72;52377.06;5115891;28;20285;-80
2024/03/18 06:33:15;;;;;;;6.33;1.73;;;;;;;-145.69;70.45;52398.84;5116071;28;20686;-80
2024/03/18 06:35:42;;;;;;;4.33;1.83;;;;;;;-145.69;70.53;52357.25;5115910;28;20208;-80
2024/03/18 06:38:10;;;;;;;10.00;2.23;;;;;;;-145.69;70.31;52363.19;5115864;28;20208;-80
2024/03/18 06:40:39;;;;;;;8.40;2.27;;;;;;;-145.69;70.80;52369.13;5115856;28;20201;-80
2024/03/18 06:43:06;;;;;;;6.40;2.07;;;;;;;-145.69;70.70;52365.16;5115693;28;20216;-81
2024/03/18 06:45:33;;;;;;;10.80;2.03;;;;;;;-145.69;70.41;52384.97;5115336;28;20197;-80
2024/03/18 06:48:00;;;;;;;3.40;1.97;;;;;;;-145.69;70.26;52367.16;5114914;28;20229;-81
2024/03/18 06:50:27;;;;;;;9.52;2.92;;;;;;;-145.69;70.27;52345.38;5115213;28;20300;-80
2024/03/18 06:52:53;;;;;;;4.43;2.10;;;;;;;-145.69;70.15;52343.38;5115311;28;20200;-80
2024/03/18 06:55:21;;;;;;;6.23;2.03;;;;;;;-145.69;70.11;52373.09;5108963;28;20205;-81
2024/03/18 06:57:48;;;;;;;4.80;2.57;;;;;;;-145.69;69.98;52357.25;5115384;28;20197;-81
2024/03/18 07:00:19;;;;;;;6.43;2.10;;;;;;;-145.69;69.95;52357.25;5115436;28;20219;-80
2024/03/18 07:02:46;;;;;;;8.77;2.40;;;;;;;-145.69;69.84;52361.22;5114689;28;20241;-80
2024/03/18 07:05:13;;;;;;;4.97;2.10;;;;;;;-145.69;70.06;52341.41;5115155;28;20614;-80
2024/03/18 07:07:41;;;;;;;8.80;2.10;;;;;;;-145.69;70.02;52361.22;5115251;28;20228;-80
2024/03/18 07:10:10;;;;;;;3.23;1.80;;;;;;;-145.69;70.19;52335.47;5113936;28;20193;-79
2024/03/18 07:12:38;;;;;;;3.70;1.90;;;;;;;-145.69;69.77;52333.47;5113410;28;20239;-79
2024/03/18 07:15:06;;;;;;;3.30;1.50;;;;;;;-145.69;69.76;52357.25;5115040;28;20560;-80
2024/03/18 07:17:32;;;;;;;4.00;1.60;;;;;;;-145.69;69.74;52345.38;5115256;28;20197;-80
2024/03/18 07:19:59;;;;;;;5.82;2.10;;;;;;;-145.69;69.78;52353.28;5114733;28;20229;-79
2024/03/18 07:22:25;;;;;;;6.45;2.17;;;;;;;-145.69;69.55;52345.38;5114754;28;20210;-80
2024/03/18 07:24:53;;;;;;;6.28;1.98;;;;;;;-145.69;70.11;52331.50;5114600;28;20715;-79
2024/03/18 07:27:19;;;;;;;2.67;1.65;;;;;;;-145.69;69.54;52325.56;5113918;28;20221;-79
2024/03/18 07:29:47;;;;;;;3.60;1.85;;;;;;;-145.69;69.79;52371.13;5114768;28;20565;-80
2024/03/18 07:32:17;;;;;;;3.15;1.50;;;;;;;-145.69;69.88;52341.41;5114188;28;20272;-80
2024/03/18 07:34:43;;;;;;;3.55;2.05;;;;;;;-145.69;69.99;52377.06;5114581;28;20208;-80
2024/03/18 07:37:10;;;;;;;6.55;1.63;;;;;;;-145.69;70.07;52363.19;5114722;28;20600;-79
2024/03/18 07:39:36;;;;;;;4.17;2.03;;;;;;;-145.69;69.59;52337.44;5113901;28;20193;-80
2024/03/18 07:42:03;;;;;;;5.15;1.73;;;;;;;-145.69;69.83;52347.34;5114559;28;20208;-79
2024/03/18 07:44:29;;;;;;;3.13;1.40;;;;;;;-145.69;70.31;52375.06;5114363;28;20199;-80
2024/03/18 07:46:57;;;;;;;3.58;1.85;;;;;;;-145.69;70.06;52363.19;5114153;28;20244;-80
2024/03/18 07:49:24;;;;;;;2.47;1.63;;;;;;;-145.69;69.64;52381.00;5114373;28;20197;-80
2024/03/18 07:51:52;;;;;;;3.23;1.67;;;;;;;-145.69;69.63;52327.53;5114229;28;20233;-80
2024/03/18 07:54:19;;;;;;;4.05;1.80;;;;;;;-145.69;70.11;52361.22;5114052;28;20193;-81
2024/03/18 07:56:45;;;;;;;6.80;1.80;;;;;;;-145.69;70.03;52343.38;5123810;27;20208;-80
2024/03/18 07:59:12;;;;;;;2.60;1.63;;;;;;;-145.69;70.13;52329.53;5128691;27;20660;-80
2024/03/18 08:01:39;;;;;;;5.30;2.08;;;;;;;-145.69;69.71;52323.59;5113900;28;20233;-81
2024/03/18 08:04:07;;;;;;;8.27;2.10;;;;;;;-145.69;69.80;52333.47;5113971;28;20205;-81
2024/03/18 08:06:33;;;;;;;5.78;2.17;;;;;;;-145.69;68.20;52349.31;5114107;28;20239;-79
2024/03/18 08:09:00;;;;;;;6.40;2.15;;;;;;;-145.69;68.45;52325.56;5114185;28;20201;-80
2024/03/18 08:11:27;;;;;;;4.57;2.05;;;;;;;-145.69;67.65;52345.38;5113764;28;20209;-80
2024/03/18 08:13:54;;;;;;;5.20;1.95;;;;;;;-145.69;68.07;52339.44;5114070;28;20205;-80
2024/03/18 08:16:20;;;;;;;7.45;2.30;;;;;;;-145.69;68.46;52349.31;5113796;28;20201;-81
2024/03/18 08:18:47;;;;;;;7.15;2.38;;;;;;;-145.69;68.34;52337.44;5113139;28;20202;-79
2024/03/18 08:21:15;;;;;;;4.88;2.22;;;;;;;-145.69;68.61;52331.50;5112692;28;20533;-79
2024/03/18 08:23:41;;;;;;;6.13;2.20;;;;;;;-145.69;67.40;52309.72;5113971;28;20721;-82
2024/03/18 08:26:08;;;;;;;5.05;2.00;;;;;;;-145.69;67.68;52315.66;5113566;28;20271;-81
2024/03/18 08:28:34;;;;;;;8.65;1.90;;;;;;;-145.69;67.71;52321.59;5113670;28;20221;-80
2024/03/18 08:31:00;;;;;;;2.53;1.45;;;;;;;-145.69;67.30;52305.75;5113510;28;20202;-80
2024/03/18 08:33:27;;;;;;;5.03;1.83;;;;;;;-145.69;66.60;52325.56;5113202;28;20551;-81
2024/03/18 08:35:54;;;;;;;6.15;1.77;;;;;;;-145.69;66.48;52335.47;5113571;28;20197;-80
2024/03/18 08:38:22;;;;;;;4.45;1.48;;;;;;;-145.69;66.36;52301.81;5113727;28;20207;-80
2024/03/18 08:40:53;;;;;;;10.00;2.30;;;;;;;-145.69;65.97;52315.66;5113227;28;20667;-80
2024/03/18 08:43:20;;;;;;;5.15;1.38;;;;;;;-145.69;66.28;52303.78;5113346;28;20674;-79
2024/03/18 08:45:54;;;;;;;5.38;1.60;;;;;;;-145.69;65.72;52307.75;5113191;28;20193;-80
2024/03/18 08:48:20;;;;;;;2.60;1.33;;;;;;;-145.69;65.83;52331.50;5113454;28;20225;-80
2024/03/18 08:50:47;;;;;;;5.50;1.33;;;;;;;-145.69;65.30;52317.66;5111268;28;20225;-82
2024/03/18 08:53:14;;;;;;;4.05;1.40;;;;;;;-145.69;64.70;52293.88;5110390;28;20200;-86
2024/03/18 08:55:45;;;;;;;6.90;1.38;;;;;;;-145.69;64.16;52301.81;5113379;28;20838;-84
2024/03/18 08:58:12;;;;;;;3.08;1.58;;;;;;;-145.69;64.31;52339.44;5100239;28;20670;-83
2024/03/18 09:00:39;;;;;;;6.72;1.55;;;;;;;-145.69;63.95;52303.78;5116379;27;20768;-82
2024/03/18 09:03:05;;;;;;;5.13;1.50;;;;;;;-145.69;63.93;52317.66;5112649;28;20201;-82
2024/03/18 09:05:32;;;;;;;4.57;1.60;;;;;;;-145.69;63.14;52317.66;5113215;28;20594;-81
2024/03/18 09:07:59;;;;;;;5.47;1.40;;;;;;;-145.69;63.08;52345.38;5112414;28;20651;-83
2024/03/18 09:10:27;;;;;;;5.80;1.55;;;;;;;-145.69;62.80;52305.75;5113294;28;20205;-83
2024/03/18 09:12:55;;;;;;;4.40;1.52;;;;;;;-145.69;62.46;52331.50;5112737;28;20205;-82
2024/03/18 09:15:21;;;;;;;6.47;1.30;;;;;;;-145.69;61.81;52331.50;5112673;28;20667;-81
2024/03/18 09:17:48;;;;;;;5.05;1.63;;;;;;;-145.69;60.43;52282.00;5112423;28;20651;-82
2024/03/18 09:20:16;;;;;;;6.40;1.65;;;;;;;-145.69;60.36;52307.75;5112803;28;20205;-82
2024/03/18 09:22:43;;;;;;;7.20;1.40;;;;;;;-145.69;61.24;52301.81;5112930;28;20201;-81
2024/03/18 09:25:11;;;;;;;2.92;1.60;;;;;;;-145.69;61.21;52297.84;5112343;28;20231;-81
2024/03/18 09:27:38;;;;;;;5.82;1.45;;;;;;;-145.69;61.19;52299.81;5097131;28;20260;-81
2024/03/18 09:30:07;;;;;;;6.47;1.90;;;;;;;-145.69;61.77;52325.56;5093994;28;20202;-82
2024/03/18 09:32:34;;;;;;;8.43;1.60;;;;;;;-145.69;61.55;52276.06;5094733;28;20205;-80
2024/03/18 09:35:00;;;;;;;5.60;1.70;;;;;;;-145.69;61.78;52329.53;5096521;28;20209;-82
2024/03/18 09:37:28;;;;;;;5.97;1.50;;;;;;;-145.69;61.76;52297.84;5096367;28;20255;-80
2024/03/18 09:39:55;;;;;;;4.88;1.70;;;;;;;-145.69;61.80;52301.81;5096367;28;20198;-79
2024/03/18 09:42:21;;;;;;;6.75;2.22;;;;;;;-145.69;62.99;52287.94;5095835;28;20194;-79
2024/03/18 09:44:48;;;;;;;6.75;2.50;;;;;;;-145.69;64.14;52287.94;5096218;28;20198;-79
2024/03/18 09:47:21;;;;;;;7.30;2.35;;;;;;;-145.69;64.24;52307.75;5114285;28;20217;-79
2024/03/18 09:49:47;;;;;;;5.28;2.40;;;;;;;-145.69;64.49;52323.59;5116369;28;20194;-82
2024/03/18 09:52:16;;;;;;;5.07;2.25;;;;;;;-145.69;64.46;52301.81;5116263;28;20252;-81
2024/03/18 09:54:43;;;;;;;3.88;2.50;;;;;;;-145.69;64.81;52303.78;5116421;28;20204;-81
2024/03/18 09:57:16;;;;;;;6.65;2.20;;;;;;;-145.69;64.64;52321.59;5116468;28;20209;-81
2024/03/18 09:59:42;;;;;;;4.82;2.50;;;;;;;-145.69;64.29;52321.59;5116641;28;20208;-79
2024/03/18 10:02:14;;;;;;;5.30;2.03;;;;;;;-145.69;65.01;52282.00;5116545;28;20254;-80
2024/03/18 10:04:42;;;;;;;5.88;2.13;;;;;;;-145.69;65.20;52329.53;5115854;28;20200;-81
2024/03/18 10:07:15;;;;;;;7.28;2.22;;;;;;;-145.69;65.11;52327.53;5116256;28;20197;-80
2024/03/18 10:09:44;;;;;;;5.10;2.47;;;;;;;-145.69;65.60;52333.47;5116285;28;20224;-81
2024/03/18 10:12:13;;;;;;;6.18;2.55;;;;;;;-145.69;65.25;52301.81;5116383;28;20197;-81
2024/03/18 10:14:39;;;;;;;9.00;2.80;;;;;;;-145.69;65.53;52337.44;5115957;28;20200;-81
2024/03/18 10:17:07;;;;;;;4.15;2.78;;;;;;;-145.69;65.33;52337.44;5115982;28;20201;-81
2024/03/18 10:19:34;;;;;;;4.80;2.88;;;;;;;-145.69;65.13;52317.66;5116021;28;20201;-81
2024/03/18 10:22:04;;;;;;;5.22;3.00;;;;;;;-145.69;65.13;52305.75;5115453;28;20201;-79
2024/03/18 10:24:30;;;;;;;6.30;3.08;;;;;;;-145.69;64.74;52301.81;5115908;28;20656;-81
2024/03/18 10:26:57;;;;;;;6.90;3.10;;;;;;;-145.69;65.06;52313.69;5115475;27;20679;-80
2024/03/18 10:29:24;;;;;;;6.32;3.25;;;;;;;-145.69;64.79;52305.75;5115800;28;20726;-80
2024/03/18 10:31:51;;;;;;;6.72;3.08;;;;;;;-145.69;63.89;52301.81;5116000;28;20197;-80
2024/03/18 10:34:21;;;;;;;5.60;2.63;;;;;;;-145.69;63.49;52297.84;5115870;28;20283;-81
2024/03/18 10:36:51;;;;;;;5.68;2.65;;;;;;;-145.69;63.11;52321.59;5115578;28;20224;-80
2024/03/18 10:39:29;;;;;;;3.65;2.22;;;;;;;-145.69;63.51;52329.53;5095350;28;20211;-80
2024/03/18 10:42:01;;;;;;;5.95;2.30;;;;;;;-145.69;62.99;52307.75;5094961;28;20229;-81
2024/03/18 10:44:33;;;;;;;5.60;2.25;;;;;;;-145.69;62.62;52329.53;5094115;28;20726;-81
2024/03/18 10:46:59;;;;;;;5.18;2.22;;;;;;;-145.69;61.95;52301.81;5095127;28;20292;-82
2024/03/18 10:49:27;;;;;;;4.60;2.10;;;;;;;-145.69;62.31;52315.66;5095183;28;20257;-82
2024/03/18 10:51:54;;;;;;;5.25;2.35;;;;;;;-145.69;63.15;52309.72;5094874;28;20588;-80
2024/03/18 10:54:22;;;;;;;11.93;4.15;;;;;;;-145.69;63.85;52283.97;5095098;28;20194;-81
2024/03/18 10:56:48;;;;;;;8.35;5.05;;;;;;;-145.69;64.27;52317.66;5103799;28;20201;-82
2024/03/18 10:59:17;;;;;;;9.18;4.88;;;;;;;-145.69;64.30;52303.78;5114920;28;20667;-81
2024/03/18 11:01:45;;;;;;;10.00;5.85;;;;;;;-145.69;64.14;52309.72;5115242;28;20194;-80
2024/03/18 11:04:29;;;;;;;9.80;3.72;;;;;;;-145.69;63.89;52327.53;5115168;28;20190;-81
2024/03/18 11:06:56;;;;;;;11.85;4.53;;;;;;;-145.69;64.59;52325.56;5101904;28;20289;-81
2024/03/18 11:09:25;;;;;;;9.25;3.70;;;;;;;-145.69;64.19;52293.88;5094526;28;20236;-81
2024/03/18 11:11:52;;;;;;;5.80;3.20;;;;;;;-145.69;64.48;52295.84;5094655;28;20225;-81
2024/03/18 11:14:25;;;;;;;6.88;3.33;;;;;;;-145.69;63.81;52321.59;5094916;28;20209;-81
2024/03/18 11:16:52;;;;;;;6.80;3.90;;;;;;;-145.69;64.40;52309.72;5094285;28;20198;-80
2024/03/18 11:19:20;;;;;;;6.65;3.38;;;;;;;-145.69;64.36;52291.91;5094455;28;20255;-80
2024/03/18 11:21:58;;;;;;;6.43;3.03;;;;;;;-145.69;63.53;52303.78;5094531;28;20232;-80